ADDS METAR Data INFO
IDs: Format: Raw Decoded Include TAF

Data at: 1409 UTC 12 Dec 2017

K24J 121355Z AUTO VRB06KT 10SM CLR 12/12 A2999 RMK A01
K24J 121335Z AUTO 20004KT 9SM CLR 10/10 A2998 RMK A01
K24J 121315Z AUTO 00000KT 3SM BR CLR 09/09 A2998 RMK A01
K24J 121255Z AUTO 00000KT 1 1/4SM BR CLR 06/06 A2999 RMK A01
K24J 121235Z AUTO 00000KT 1/4SM FG VV002 06/06 A2999 RMK A01
K24J 121215Z AUTO 00000KT 2SM BR FEW027 FEW033 05/05 A2999 RMK A01
K24J 121155Z AUTO 00000KT M1/4SM FG OVC029 05/05 A3000 RMK A01
K24J 121135Z AUTO 00000KT 1SM BR CLR 05/05 A3000 RMK A01
K24J 121115Z AUTO 00000KT 1/4SM FG BKN026 BKN034 06/06 A3000 RMK A01
K24J 121055Z AUTO 00000KT 3/4SM BR VV005 06/06 A3000 RMK A01
K24J 121035Z AUTO 00000KT 2SM BR CLR 07/07 A3000 RMK A01
K24J 121015Z AUTO 00000KT 1 3/4SM BR CLR 06/07 A3001 RMK A01
K24J 120955Z AUTO 00000KT 1/2SM FG VV005 05/05 A3001 RMK A01
K24J 120935Z AUTO 00000KT 1 1/2SM BR CLR 06/06 A3002 RMK A01 VIS 3/4V2 1/2
K24J 120915Z AUTO 00000KT 1 1/4SM BR CLR 06/06 A3002 RMK A01
K24J 120855Z AUTO 00000KT 1 3/4SM BR CLR 06/06 A3002 RMK A01 VIS 3/4V4
K24J 120835Z AUTO 00000KT 3SM BR CLR 06/06 A3003 RMK A01
K24J 120815Z AUTO 00000KT 3SM BR CLR 06/07 A3004 RMK A01
K24J 120755Z AUTO 00000KT 4SM BR CLR 06/06 A3005 RMK A01
K24J 120735Z AUTO 00000KT 3SM BR CLR 06/06 A3006 RMK A01
K24J 120715Z AUTO 00000KT 5SM BR CLR 06/06 A3006 RMK A01
K24J 120655Z AUTO 00000KT 3SM BR CLR 05/05 A3007 RMK A01
K24J 120635Z AUTO 00000KT 4SM BR CLR 05/05 A3007 RMK A01
K24J 120615Z AUTO 00000KT 7SM SCT030 05/05 A3008 RMK A01
K24J 120555Z AUTO 00000KT 9SM BKN029 BKN039 04/04 A3009 RMK A01
K24J 120535Z AUTO 00000KT 9SM CLR 04/04 A3010 RMK A01
K24J 120515Z AUTO 00000KT 10SM CLR 04/04 A3010 RMK A01
K24J 120455Z AUTO 00000KT 10SM CLR 05/05 A3011 RMK A01
K24J 120435Z AUTO 00000KT 10SM CLR 05/05 A3011 RMK A01
K24J 120415Z AUTO 00000KT 10SM CLR 06/06 A3012 RMK A01
K24J 120355Z AUTO 00000KT 10SM CLR 05/05 A3013 RMK A01
K24J 120335Z AUTO 00000KT 10SM CLR 05/05 A3014 RMK A01
K24J 120315Z AUTO 00000KT 10SM CLR 05/05 A3014 RMK A01
K24J 120255Z AUTO 00000KT 10SM CLR 06/04 A3014 RMK A01
K24J 120235Z AUTO 00000KT 10SM CLR 06/04 A3014 RMK A01
K24J 120215Z AUTO 00000KT 10SM CLR 06/03 A3014 RMK A01
K24J 120155Z AUTO 00000KT 10SM CLR 05/04 A3015 RMK A01
K24J 120135Z AUTO 00000KT 10SM CLR 05/03 A3015 RMK A01
K24J 120115Z AUTO 00000KT 10SM FEW042 05/03 A3015 RMK A01
K24J 120055Z AUTO 00000KT 10SM FEW043 06/02 A3015 RMK A01
K24J 120035Z AUTO 00000KT 10SM CLR 07/02 A3016 RMK A01
K24J 120015Z AUTO 00000KT 10SM CLR 09/01 A3016 RMK A01
K24J 112355Z AUTO 00000KT 10SM CLR 10/01 A3017 RMK A01
K24J 112335Z AUTO 00000KT 10SM CLR 11/00 A3016 RMK A01
K24J 112315Z AUTO 21007KT 10SM CLR 12/M00 A3016 RMK A01
K24J 112255Z AUTO 21005KT 10SM CLR 12/02 A3016 RMK A01
K24J 112235Z AUTO 21006KT 10SM CLR 13/03 A3016 RMK A01
K24J 112215Z AUTO 21003KT 10SM CLR 14/02 A3015 RMK A01
K24J 112155Z AUTO 21005KT 10SM CLR 16/01 A3015 RMK A01
K24J 112135Z AUTO 21004KT 10SM CLR 16/01 A3015 RMK A01
K24J 112115Z AUTO VRB05KT 10SM CLR 17/01 A3015 RMK A01
K24J 112055Z AUTO VRB04KT 10SM CLR 17/01 A3015 RMK A01
K24J 112035Z AUTO 20008KT 10SM CLR 17/00 A3015 RMK A01
K24J 112015Z AUTO VRB06KT 10SM CLR 17/01 A3015 RMK A01
K24J 111955Z AUTO 22008KT 10SM CLR 17/01 A3016 RMK A01
K24J 111935Z AUTO 19005G10KT 10SM CLR 17/01 A3016 RMK A01
K24J 111915Z AUTO 00000KT 10SM CLR 16/00 A3017 RMK A01
K24J 111855Z AUTO 00000KT 10SM CLR 16/00 A3018 RMK A01
K24J 111835Z AUTO VRB03KT 10SM CLR 16/01 A3019 RMK A01
K24J 111815Z AUTO 00000KT 10SM CLR 15/01 A3020 RMK A01
K24J 111755Z AUTO 00000KT 10SM CLR 15/00 A3021 RMK A01
K24J 111735Z AUTO 29006KT 10SM CLR 15/00 A3023 RMK A01
K24J 111715Z AUTO VRB03KT 10SM CLR 14/01 A3025 RMK A01
K24J 111655Z AUTO 28005KT 10SM CLR 13/00 A3026 RMK A01
K24J 111635Z AUTO VRB04KT 10SM CLR 13/01 A3027 RMK A01
K24J 111615Z AUTO VRB04G11KT 10SM CLR 12/01 A3028 RMK A01
K24J 111555Z AUTO VRB03KT 10SM CLR 11/01 A3029 RMK A01
K24J 111535Z AUTO VRB03KT 10SM CLR 10/02 A3030 RMK A01
K24J 111515Z AUTO 26003KT 10SM CLR 09/01 A3031 RMK A01
K24J 111455Z AUTO 00000KT 10SM CLR 07/01 A3031 RMK A01
K24J 111435Z AUTO 00000KT 10SM CLR 06/02 A3032 RMK A01
K24J 111415Z AUTO 00000KT 10SM CLR 04/02 A3032 RMK A01
K24J 111355Z AUTO 00000KT 10SM CLR 02/02 A3032 RMK A01
K24J 111335Z AUTO 00000KT 9SM CLR 00/00 A3032 RMK A01
K24J 111315Z AUTO 00000KT 6SM BR CLR M01/M01 A3032 RMK A01
K24J 111255Z AUTO 00000KT 9SM CLR M02/M02 A3031 RMK A01
K24J 111235Z AUTO 00000KT 10SM CLR M03/M02 A3031 RMK A01
K24J 111215Z AUTO 00000KT 10SM CLR M02/M02 A3031 RMK A01
K24J 111155Z AUTO 00000KT 10SM CLR M02/M02 A3031 RMK A01
K24J 111135Z AUTO 00000KT 10SM CLR M02/M02 A3031 RMK A01
K24J 111115Z AUTO 00000KT 10SM CLR M02/M02 A3031 RMK A01
K24J 111055Z AUTO 00000KT 10SM CLR M02/M02 A3031 RMK A01
K24J 111035Z AUTO 00000KT 10SM CLR M02/M02 A3030 RMK A01
K24J 111015Z AUTO 00000KT 9SM FEW047 M02/M02 A3030 RMK A01
K24J 110955Z AUTO 00000KT 7SM BKN047 M02/M02 A3030 RMK A01
K24J 110935Z AUTO 00000KT 6SM BR BKN049 M02/M02 A3031 RMK A01
K24J 110915Z AUTO 00000KT 6SM BR SCT049 M02/M02 A3031 RMK A01
K24J 110855Z AUTO 00000KT 8SM CLR M02/M02 A3031 RMK A01
K24J 110835Z AUTO 00000KT 6SM BR CLR M01/M01 A3031 RMK A01
K24J 110815Z AUTO 00000KT 5SM BR CLR M01/M01 A3031 RMK A01
K24J 110755Z AUTO 00000KT 6SM BR CLR M01/M01 A3031 RMK A01
K24J 110735Z AUTO 00000KT 5SM BR CLR M01/M01 A3031 RMK A01
K24J 110715Z AUTO 00000KT 3SM BR CLR M01/M01 A3031 RMK A01
K24J 110655Z AUTO 00000KT 3SM BR CLR M01/M01 A3031 RMK A01
K24J 110635Z AUTO 00000KT 4SM BR CLR M01/M01 A3031 RMK A01
K24J 110615Z AUTO 00000KT 3SM BR CLR M01/M00 A3032 RMK A01
K24J 110555Z AUTO 00000KT 3SM BR CLR M01/M00 A3032 RMK A01
K24J 110535Z AUTO 00000KT 3SM BR CLR M00/M00 A3033 RMK A01
K24J 110515Z AUTO 00000KT 3SM BR CLR 00/00 A3033 RMK A01
K24J 110455Z AUTO 00000KT 4SM BR CLR 00/00 A3033 RMK A01
K24J 110435Z AUTO 00000KT 4SM BR CLR 00/00 A3032 RMK A01
K24J 110415Z AUTO 00000KT 3SM BR CLR 00/00 A3032 RMK A01
K24J 110355Z AUTO 00000KT 4SM BR CLR 01/01 A3033 RMK A01
K24J 110335Z AUTO 00000KT 5SM BR CLR 01/01 A3033 RMK A01
K24J 110315Z AUTO 00000KT 6SM BR CLR 01/01 A3032 RMK A01
K24J 110255Z AUTO 00000KT 9SM CLR 01/01 A3032 RMK A01
K24J 110235Z AUTO 00000KT 9SM CLR 01/01 A3033 RMK A01
K24J 110215Z AUTO 00000KT 10SM CLR 01/01 A3032 RMK A01